createdAt,value
2023-06-25T00:01:41.228Z,8.00
2023-06-25T00:04:07.616Z,8.60
2023-06-25T00:06:33.777Z,8.00
2023-06-25T00:08:59.917Z,8.00
2023-06-25T00:11:26.084Z,8.30
2023-06-25T00:13:54.231Z,8.80
2023-06-25T00:16:20.792Z,7.60
2023-06-25T00:18:47.764Z,7.30
2023-06-25T00:21:14.076Z,10.70
2023-06-25T00:23:40.236Z,8.90
2023-06-25T00:26:06.432Z,9.50
2023-06-25T00:28:32.519Z,9.80
2023-06-25T00:30:58.826Z,9.30
2023-06-25T00:33:25.041Z,7.90
2023-06-25T00:35:51.154Z,7.30
2023-06-25T00:38:17.355Z,8.70
2023-06-25T00:40:43.672Z,9.00
2023-06-25T00:43:10.073Z,8.50
2023-06-25T00:45:36.310Z,7.90
2023-06-25T00:48:02.574Z,9.30
2023-06-25T00:50:28.756Z,9.20
2023-06-25T00:52:57.489Z,8.20
2023-06-25T00:55:23.697Z,7.90
2023-06-25T00:57:52.400Z,8.10
2023-06-25T01:00:18.750Z,7.90
2023-06-25T01:02:46.881Z,9.20
2023-06-25T01:05:13.285Z,9.10
2023-06-25T01:07:39.443Z,9.60
2023-06-25T01:10:05.718Z,9.20
2023-06-25T01:12:32.440Z,8.70
2023-06-25T01:14:59.804Z,11.10
2023-06-25T01:17:26.983Z,8.30
2023-06-25T01:19:53.203Z,10.70
2023-06-25T01:22:19.430Z,12.10
2023-06-25T01:24:45.611Z,11.20
2023-06-25T01:27:11.805Z,10.90
2023-06-25T01:29:38.643Z,9.00
2023-06-25T01:32:06.696Z,10.60
2023-06-25T01:34:33.007Z,9.80
2023-06-25T01:36:59.132Z,7.90
2023-06-25T01:39:25.870Z,7.90
2023-06-25T01:41:52.019Z,8.70
2023-06-25T01:44:19.969Z,8.30
2023-06-25T01:46:47.749Z,9.90
2023-06-25T01:49:23.045Z,9.40
2023-06-25T01:51:57.024Z,9.40
2023-06-25T01:54:23.352Z,9.50
2023-06-25T01:56:49.504Z,8.10
2023-06-25T01:59:15.775Z,10.80
2023-06-25T02:01:42.037Z,8.10
2023-06-25T02:04:08.437Z,8.10
2023-06-25T02:06:34.798Z,7.70
2023-06-25T02:09:00.961Z,8.00
2023-06-25T02:11:27.166Z,7.60
2023-06-25T02:13:53.427Z,7.40
2023-06-25T02:16:19.668Z,10.00
2023-06-25T02:18:45.901Z,8.30
2023-06-25T02:21:12.287Z,12.30
2023-06-25T02:23:38.447Z,9.80
2023-06-25T02:26:05.048Z,7.70
2023-06-25T02:28:31.235Z,7.70
2023-06-25T02:30:57.443Z,9.80
2023-06-25T02:33:23.613Z,9.40
2023-06-25T02:35:49.809Z,8.10
2023-06-25T02:38:15.986Z,9.40
2023-06-25T02:40:42.114Z,9.60
2023-06-25T02:43:08.304Z,7.90
2023-06-25T02:45:34.655Z,7.90
2023-06-25T02:48:00.963Z,7.70
2023-06-25T02:50:27.237Z,8.20
2023-06-25T02:52:53.403Z,8.50
2023-06-25T02:55:19.868Z,8.60
2023-06-25T02:57:46.060Z,7.90
2023-06-25T03:00:12.306Z,8.40
2023-06-25T03:02:38.619Z,7.90
2023-06-25T03:05:04.939Z,8.20
2023-06-25T03:07:31.053Z,7.10
2023-06-25T03:09:57.498Z,7.10
2023-06-25T03:12:23.778Z,8.20
2023-06-25T03:14:50.024Z,9.90
2023-06-25T03:17:16.314Z,8.00
2023-06-25T03:19:42.556Z,8.80
2023-06-25T03:22:08.697Z,8.50
2023-06-25T03:24:35.669Z,8.00
2023-06-25T03:27:02.512Z,8.10
2023-06-25T03:29:28.599Z,8.10
2023-06-25T03:31:54.800Z,8.10
2023-06-25T03:34:20.936Z,9.60
2023-06-25T03:36:47.066Z,9.20
2023-06-25T03:39:13.350Z,9.30
2023-06-25T03:41:39.518Z,9.60
2023-06-25T03:44:05.665Z,9.40
2023-06-25T03:46:31.842Z,9.20
2023-06-25T03:48:58.022Z,9.00
2023-06-25T03:51:24.161Z,7.80
2023-06-25T03:53:50.330Z,9.80
2023-06-25T03:56:16.680Z,7.40
2023-06-25T03:58:42.819Z,7.40
2023-06-25T04:01:09.033Z,6.50
2023-06-25T04:03:35.251Z,6.80
2023-06-25T04:06:01.393Z,7.00
2023-06-25T04:08:27.632Z,7.50
2023-06-25T04:10:53.882Z,7.40
2023-06-25T04:13:20.040Z,6.80
2023-06-25T04:15:46.487Z,6.60
2023-06-25T04:18:12.652Z,6.50
2023-06-25T04:20:38.781Z,6.30
2023-06-25T04:23:05.182Z,7.70
2023-06-25T04:25:31.643Z,7.50
2023-06-25T04:27:58.242Z,7.20
2023-06-25T04:30:24.510Z,7.20
2023-06-25T04:32:51.012Z,10.70
2023-06-25T04:35:17.301Z,10.00
2023-06-25T04:37:43.436Z,11.00
2023-06-25T04:40:09.680Z,11.00
2023-06-25T04:42:35.812Z,8.70
2023-06-25T04:45:02.000Z,7.60
2023-06-25T04:47:28.391Z,9.00
2023-06-25T04:49:54.545Z,8.60
2023-06-25T04:52:20.745Z,8.20
2023-06-25T04:54:46.938Z,10.30
2023-06-25T04:57:13.292Z,9.40
2023-06-25T04:59:39.419Z,9.40
2023-06-25T05:02:05.630Z,10.70
2023-06-25T05:04:31.781Z,7.80
2023-06-25T05:06:57.893Z,7.30
2023-06-25T05:09:24.568Z,7.00
2023-06-25T05:11:50.807Z,6.80
2023-06-25T05:14:17.539Z,8.50
2023-06-25T05:16:43.676Z,9.00
2023-06-25T05:19:09.780Z,7.20
2023-06-25T05:21:36.338Z,7.90
2023-06-25T05:24:03.814Z,9.00
2023-06-25T05:26:30.020Z,8.10
2023-06-25T05:28:56.677Z,9.00
2023-06-25T05:31:23.003Z,8.30
2023-06-25T05:33:49.207Z,8.70
2023-06-25T05:36:15.483Z,8.10
2023-06-25T05:38:41.759Z,7.50
2023-06-25T05:41:07.961Z,7.70
2023-06-25T05:43:34.118Z,8.50
2023-06-25T05:46:00.262Z,7.50
2023-06-25T05:48:26.370Z,10.30
2023-06-25T05:50:52.485Z,8.40
2023-06-25T05:53:18.631Z,11.10
2023-06-25T05:55:44.927Z,9.20
2023-06-25T05:58:11.608Z,10.60
2023-06-25T06:00:37.759Z,9.70
2023-06-25T06:03:03.921Z,9.90
2023-06-25T06:05:30.384Z,8.90
2023-06-25T06:07:56.566Z,10.80
2023-06-25T06:10:22.701Z,9.20
2023-06-25T06:12:48.877Z,10.60
2023-06-25T06:15:16.430Z,12.50
2023-06-25T06:17:42.710Z,12.00
2023-06-25T06:20:09.141Z,12.00
2023-06-25T06:22:35.285Z,14.80
2023-06-25T06:25:01.422Z,16.40
2023-06-25T06:27:28.244Z,15.40
2023-06-25T06:29:54.433Z,16.50
2023-06-25T06:32:20.613Z,17.80
2023-06-25T06:34:46.816Z,17.40
2023-06-25T06:37:12.993Z,17.70
2023-06-25T06:39:39.112Z,19.80
2023-06-25T06:42:05.331Z,18.00
2023-06-25T06:44:31.517Z,17.30
2023-06-25T06:46:57.700Z,16.70
2023-06-25T06:49:24.160Z,16.80
2023-06-25T06:51:50.409Z,14.50
2023-06-25T06:54:16.538Z,14.30
2023-06-25T06:56:42.769Z,14.40
2023-06-25T06:59:09.036Z,16.40
2023-06-25T07:01:35.304Z,15.20
2023-06-25T07:04:01.531Z,14.00
2023-06-25T07:06:27.713Z,13.70
2023-06-25T07:08:53.843Z,20.40
2023-06-25T07:11:20.357Z,18.20
2023-06-25T07:13:46.651Z,13.90
2023-06-25T07:16:12.886Z,15.50
2023-06-25T07:18:39.079Z,18.00
2023-06-25T07:21:06.255Z,15.40
2023-06-25T07:23:32.346Z,15.10
2023-06-25T07:25:58.532Z,13.30
2023-06-25T07:28:24.891Z,14.00
2023-06-25T07:30:51.090Z,13.40
2023-06-25T07:33:17.398Z,15.50
2023-06-25T07:35:43.677Z,15.00
2023-06-25T07:38:10.138Z,13.10
2023-06-25T07:40:36.501Z,15.30
2023-06-25T07:43:03.152Z,14.70
2023-06-25T07:45:29.480Z,13.40
2023-06-25T07:47:55.636Z,13.60
2023-06-25T07:50:21.791Z,12.90
2023-06-25T07:52:48.127Z,12.60
2023-06-25T07:55:14.278Z,14.50
2023-06-25T07:57:40.430Z,13.10
2023-06-25T08:00:06.687Z,12.70
2023-06-25T08:02:32.888Z,12.00
2023-06-25T08:04:59.240Z,12.90
2023-06-25T08:07:25.625Z,10.70
2023-06-25T08:09:54.376Z,11.00
2023-06-25T08:12:25.787Z,12.90
2023-06-25T08:14:52.034Z,11.20
2023-06-25T08:17:18.184Z,12.50
2023-06-25T08:19:44.452Z,10.80
2023-06-25T08:22:10.723Z,11.60
2023-06-25T08:24:36.880Z,13.80
2023-06-25T08:27:03.127Z,12.50
2023-06-25T08:29:30.180Z,9.60
2023-06-25T08:31:56.349Z,10.30
2023-06-25T08:34:22.753Z,11.40
2023-06-25T08:36:48.995Z,10.90
2023-06-25T08:39:15.158Z,10.60
2023-06-25T08:41:41.428Z,9.40
2023-06-25T08:44:07.690Z,11.70
2023-06-25T08:46:34.010Z,9.70
2023-06-25T08:49:00.443Z,9.80
2023-06-25T08:51:26.663Z,9.30
2023-06-25T08:53:52.954Z,9.00
2023-06-25T08:56:19.564Z,12.60
2023-06-25T08:58:45.695Z,10.50
2023-06-25T09:01:14.885Z,9.90
2023-06-25T09:03:42.155Z,10.90
2023-06-25T09:06:08.306Z,10.10
2023-06-25T09:08:34.576Z,9.00
2023-06-25T09:11:00.777Z,9.20
2023-06-25T09:13:26.946Z,9.30
2023-06-25T09:15:53.582Z,8.30
2023-06-25T09:18:20.725Z,10.50
2023-06-25T09:20:47.879Z,9.50
2023-06-25T09:23:14.438Z,8.40
2023-06-25T09:25:40.679Z,7.50
2023-06-25T09:28:06.966Z,8.80
2023-06-25T09:30:33.131Z,7.50
2023-06-25T09:32:59.425Z,9.90
2023-06-25T09:35:26.039Z,8.60
2023-06-25T09:37:52.594Z,10.10
2023-06-25T09:40:18.765Z,9.30
2023-06-25T09:42:47.726Z,11.00
2023-06-25T09:45:14.541Z,9.40
2023-06-25T09:47:40.764Z,8.50
2023-06-25T09:50:06.929Z,8.10
2023-06-25T09:52:33.222Z,8.10
2023-06-25T09:54:59.510Z,7.70
2023-06-25T09:57:26.493Z,9.10
2023-06-25T09:59:52.622Z,8.90
2023-06-25T10:02:19.280Z,9.60
2023-06-25T10:04:45.711Z,9.60
2023-06-25T10:07:12.138Z,9.00
2023-06-25T10:09:38.371Z,7.30
2023-06-25T10:12:04.576Z,7.90
2023-06-25T10:14:30.846Z,7.10
2023-06-25T10:16:57.120Z,7.80
2023-06-25T10:19:23.415Z,7.60
2023-06-25T10:21:50.033Z,8.60
2023-06-25T10:24:16.198Z,8.50
2023-06-25T10:26:42.383Z,7.70
2023-06-25T10:29:08.621Z,8.40
2023-06-25T10:31:34.957Z,8.20
2023-06-25T10:34:01.152Z,9.00
2023-06-25T10:36:27.382Z,8.30
2023-06-25T10:38:53.572Z,8.60
2023-06-25T10:41:20.114Z,8.60
2023-06-25T10:43:46.465Z,7.80
2023-06-25T10:46:12.627Z,9.50
2023-06-25T10:48:38.797Z,9.30
2023-06-25T10:51:05.192Z,8.00
2023-06-25T10:53:31.421Z,7.70
2023-06-25T10:55:57.594Z,7.90
2023-06-25T10:58:23.918Z,9.60
2023-06-25T11:00:50.098Z,9.70
2023-06-25T11:03:16.604Z,6.80
2023-06-25T11:05:42.928Z,8.10
2023-06-25T11:08:09.139Z,8.00
2023-06-25T11:10:35.246Z,7.20
2023-06-25T11:13:02.329Z,8.10
2023-06-25T11:15:28.514Z,7.60
2023-06-25T11:17:54.747Z,8.80
2023-06-25T11:20:20.884Z,8.60
2023-06-25T11:22:47.021Z,10.10
2023-06-25T11:25:13.744Z,8.00
2023-06-25T11:27:39.936Z,8.50
2023-06-25T11:30:07.447Z,8.20
2023-06-25T11:32:33.664Z,7.60
2023-06-25T11:34:59.993Z,9.10
2023-06-25T11:37:28.398Z,9.40
2023-06-25T11:39:54.680Z,7.40
2023-06-25T11:42:20.866Z,7.90
2023-06-25T11:44:47.248Z,12.90
2023-06-25T11:47:13.369Z,8.40
2023-06-25T11:49:39.720Z,7.00
2023-06-25T11:52:06.023Z,7.30
2023-06-25T11:54:32.145Z,7.20
2023-06-25T11:56:58.288Z,8.30
2023-06-25T11:59:24.494Z,9.20
2023-06-25T12:01:50.759Z,7.60
2023-06-25T12:04:18.445Z,8.70
2023-06-25T12:06:44.717Z,7.60
2023-06-25T12:09:10.885Z,7.80
2023-06-25T12:11:38.110Z,7.80
2023-06-25T12:14:04.296Z,8.80
2023-06-25T12:16:32.332Z,7.70
2023-06-25T12:18:58.722Z,7.10
2023-06-25T12:21:25.537Z,6.90
2023-06-25T12:23:51.722Z,7.90
2023-06-25T12:26:17.939Z,6.90
2023-06-25T12:28:44.152Z,6.80
2023-06-25T12:31:10.360Z,7.60
2023-06-25T12:33:36.474Z,8.90
2023-06-25T12:36:02.654Z,8.00
2023-06-25T12:38:28.838Z,7.50
2023-06-25T12:40:57.318Z,7.70
2023-06-25T12:43:23.504Z,7.40
2023-06-25T12:45:51.111Z,6.90
2023-06-25T12:48:17.413Z,8.20
2023-06-25T12:50:43.664Z,7.30
2023-06-25T12:53:09.774Z,7.10
2023-06-25T12:55:36.233Z,7.40
2023-06-25T12:58:02.627Z,7.70
2023-06-25T13:00:43.064Z,8.00
2023-06-25T13:03:15.266Z,8.70
2023-06-25T13:05:41.690Z,6.90
2023-06-25T13:08:07.805Z,9.40
2023-06-25T13:10:33.970Z,9.50
2023-06-25T13:13:00.656Z,11.00
2023-06-25T13:15:26.838Z,7.90
2023-06-25T13:17:53.169Z,7.90
2023-06-25T13:20:19.309Z,8.10
2023-06-25T13:22:45.419Z,9.90
2023-06-25T13:25:11.638Z,7.90
2023-06-25T13:27:37.854Z,9.00
2023-06-25T13:30:04.140Z,10.10
2023-06-25T13:32:30.391Z,8.70
2023-06-25T13:34:56.693Z,7.50
2023-06-25T13:37:22.824Z,10.60
2023-06-25T13:39:49.033Z,9.20
2023-06-25T13:42:15.305Z,7.80
2023-06-25T13:44:41.547Z,8.40
2023-06-25T13:47:08.221Z,8.60
2023-06-25T13:49:34.355Z,9.60
2023-06-25T13:52:00.876Z,9.60
2023-06-25T13:54:27.117Z,8.70
2023-06-25T13:56:55.266Z,8.20
2023-06-25T13:59:23.141Z,8.60
2023-06-25T14:01:49.249Z,10.00
2023-06-25T14:04:15.429Z,8.80
2023-06-25T14:06:41.866Z,10.80
2023-06-25T14:09:08.242Z,8.80
2023-06-25T14:11:34.791Z,10.00
2023-06-25T14:14:00.919Z,8.40
2023-06-25T14:16:32.258Z,8.70
2023-06-25T14:18:58.380Z,9.60
2023-06-25T14:21:24.506Z,9.30
2023-06-25T14:23:50.668Z,9.90
2023-06-25T14:26:16.781Z,9.50
2023-06-25T14:28:42.978Z,8.50
2023-06-25T14:31:09.946Z,8.70
2023-06-25T14:33:36.311Z,9.70
2023-06-25T14:36:02.610Z,9.70
2023-06-25T14:38:29.642Z,10.20
2023-06-25T14:40:55.768Z,8.80
2023-06-25T14:43:22.028Z,10.00
2023-06-25T14:45:48.250Z,11.30
2023-06-25T14:48:14.473Z,12.00
2023-06-25T14:50:40.625Z,9.30
2023-06-25T14:53:06.776Z,9.80
2023-06-25T14:55:39.199Z,10.40
2023-06-25T14:58:11.670Z,9.40
2023-06-25T15:00:37.840Z,12.30
2023-06-25T15:03:04.148Z,10.10
2023-06-25T15:05:30.529Z,9.50
2023-06-25T15:07:56.807Z,8.60
2023-06-25T15:10:22.889Z,9.50
2023-06-25T15:12:49.086Z,9.80
2023-06-25T15:15:15.253Z,9.60
2023-06-25T15:17:41.554Z,10.20
2023-06-25T15:20:07.978Z,9.60
2023-06-25T15:22:34.127Z,8.90
2023-06-25T15:25:00.277Z,8.80
2023-06-25T15:27:26.449Z,8.70
2023-06-25T15:29:52.647Z,9.60
2023-06-25T15:32:18.718Z,9.70
2023-06-25T15:34:44.904Z,8.50
2023-06-25T15:37:11.037Z,8.80
2023-06-25T15:39:37.156Z,8.30
2023-06-25T15:42:03.338Z,8.50
2023-06-25T15:44:29.555Z,10.40
2023-06-25T15:46:55.829Z,9.60
2023-06-25T15:49:21.967Z,11.00
2023-06-25T15:51:48.415Z,8.40
2023-06-25T15:54:24.995Z,10.00
2023-06-25T15:56:52.600Z,10.80
2023-06-25T15:59:19.250Z,9.40
2023-06-25T16:01:45.921Z,10.20
2023-06-25T16:04:12.217Z,10.10
2023-06-25T16:06:38.362Z,10.00
2023-06-25T16:09:04.925Z,9.90
2023-06-25T16:11:31.272Z,10.70
2023-06-25T16:13:57.429Z,10.50
2023-06-25T16:16:23.673Z,9.10
2023-06-25T16:18:52.902Z,9.60
2023-06-25T16:21:28.322Z,10.40
2023-06-25T16:23:54.442Z,11.20
2023-06-25T16:26:20.531Z,10.90
2023-06-25T16:28:46.723Z,8.80
2023-06-25T16:31:12.923Z,10.70
2023-06-25T16:33:39.090Z,10.00
2023-06-25T16:36:05.211Z,9.50
2023-06-25T16:38:31.640Z,9.70
2023-06-25T16:40:58.087Z,11.80
2023-06-25T16:43:24.232Z,10.90
2023-06-25T16:45:50.360Z,10.80
2023-06-25T16:48:16.585Z,10.80
2023-06-25T16:50:42.691Z,10.40
2023-06-25T16:53:08.924Z,9.70
2023-06-25T16:55:35.249Z,10.30
2023-06-25T16:58:01.687Z,9.80
2023-06-25T17:00:27.818Z,14.40
2023-06-25T17:02:54.123Z,12.80
2023-06-25T17:05:20.598Z,10.50
2023-06-25T17:07:46.886Z,10.50
2023-06-25T17:10:13.953Z,71.50
2023-06-25T17:12:40.803Z,69.00
2023-06-25T17:15:07.010Z,17.80
2023-06-25T17:17:33.201Z,11.90
2023-06-25T17:19:59.347Z,10.50
2023-06-25T17:22:25.551Z,9.20
2023-06-25T17:24:51.775Z,10.20
2023-06-25T17:27:17.890Z,11.10
2023-06-25T17:29:44.080Z,10.30
2023-06-25T17:32:10.331Z,10.00
2023-06-25T17:34:36.489Z,12.00
2023-06-25T17:37:02.696Z,10.70
2023-06-25T17:39:29.990Z,9.70
2023-06-25T17:41:56.170Z,11.20
2023-06-25T17:44:22.328Z,9.50
2023-06-25T17:46:48.478Z,8.90
2023-06-25T17:49:14.672Z,9.10
2023-06-25T17:51:40.892Z,9.10
2023-06-25T17:54:07.309Z,8.60
2023-06-25T17:56:33.532Z,10.40
2023-06-25T17:58:59.781Z,8.70
2023-06-25T18:01:26.068Z,9.00
2023-06-25T18:03:52.382Z,8.80
2023-06-25T18:06:18.823Z,11.80
2023-06-25T18:08:45.022Z,11.30
2023-06-25T18:11:12.260Z,12.30
2023-06-25T18:13:38.773Z,10.70
2023-06-25T18:16:04.927Z,11.90
2023-06-25T18:18:31.048Z,10.60
2023-06-25T18:20:57.217Z,10.40
2023-06-25T18:23:23.377Z,10.80
2023-06-25T18:25:49.629Z,12.50
2023-06-25T18:28:15.834Z,11.00
2023-06-25T18:30:42.179Z,10.50
2023-06-25T18:33:09.768Z,11.30
2023-06-25T18:35:37.103Z,12.10
2023-06-25T18:38:03.245Z,10.60
2023-06-25T18:40:29.440Z,9.40
2023-06-25T18:42:55.662Z,9.90
2023-06-25T18:45:21.822Z,10.30
2023-06-25T18:47:48.052Z,10.10
2023-06-25T18:50:17.511Z,10.30
2023-06-25T18:52:43.883Z,10.20
2023-06-25T18:55:10.315Z,10.80
2023-06-25T18:57:36.475Z,10.30
2023-06-25T19:00:05.696Z,10.80
2023-06-25T19:02:35.858Z,12.80
2023-06-25T19:05:02.355Z,9.40
2023-06-25T19:07:28.624Z,9.80
2023-06-25T19:09:55.458Z,10.10
2023-06-25T19:12:23.798Z,9.40
2023-06-25T19:14:49.916Z,8.90
2023-06-25T19:17:16.120Z,9.70
2023-06-25T19:19:42.296Z,8.90
2023-06-25T19:22:08.411Z,9.60
2023-06-25T19:24:34.614Z,8.40
2023-06-25T19:27:00.856Z,9.30
2023-06-25T19:29:27.146Z,8.20
2023-06-25T19:31:53.407Z,9.10
2023-06-25T19:34:20.053Z,9.40
2023-06-25T19:36:46.330Z,9.70
2023-06-25T19:39:12.679Z,8.00
2023-06-25T19:41:40.142Z,7.80
2023-06-25T19:44:06.327Z,8.40
2023-06-25T19:49:14.564Z,6.70
2023-06-25T19:51:40.758Z,7.40
2023-06-25T19:54:06.961Z,7.60
2023-06-25T19:56:33.121Z,8.40
2023-06-25T19:58:59.282Z,6.50
2023-06-25T20:01:25.447Z,7.70
2023-06-25T20:03:51.766Z,7.50
2023-06-25T20:06:17.894Z,6.70
2023-06-25T20:08:44.126Z,7.30
2023-06-25T20:11:10.596Z,7.70
2023-06-25T20:13:36.896Z,7.70
2023-06-25T20:16:03.078Z,9.00
2023-06-25T20:18:29.263Z,8.50
2023-06-25T20:20:55.416Z,7.90
2023-06-25T20:23:21.533Z,9.20
2023-06-25T20:25:47.814Z,8.10
2023-06-25T20:28:14.172Z,6.70
2023-06-25T20:30:40.749Z,7.50
2023-06-25T20:33:07.173Z,7.50
2023-06-25T20:35:35.420Z,7.50
2023-06-25T20:38:04.262Z,8.70
2023-06-25T20:40:30.630Z,7.80
2023-06-25T20:42:56.928Z,8.10
2023-06-25T20:45:23.204Z,7.80
2023-06-25T20:47:49.571Z,8.30
2023-06-25T20:50:15.838Z,6.90
2023-06-25T20:52:41.997Z,8.70
2023-06-25T20:55:10.194Z,8.60
2023-06-25T20:57:37.600Z,8.80
2023-06-25T21:00:05.306Z,7.70
2023-06-25T21:02:31.634Z,7.40
2023-06-25T21:04:58.147Z,8.00
2023-06-25T21:07:24.317Z,8.40
2023-06-25T21:09:50.563Z,7.80
2023-06-25T21:12:16.765Z,6.60
2023-06-25T21:14:43.014Z,8.40
2023-06-25T21:17:09.350Z,8.80
2023-06-25T21:19:35.511Z,7.40
2023-06-25T21:22:01.648Z,6.80
2023-06-25T21:24:27.940Z,7.70
2023-06-25T21:26:54.118Z,7.90
2023-06-25T21:29:20.243Z,8.20
2023-06-25T21:31:46.465Z,8.80
2023-06-25T21:34:12.734Z,8.00
2023-06-25T21:36:39.712Z,6.50
2023-06-25T21:39:07.276Z,8.00
2023-06-25T21:41:33.616Z,7.70
2023-06-25T21:43:59.720Z,7.10
2023-06-25T21:46:25.992Z,6.80
2023-06-25T21:48:52.212Z,7.50
2023-06-25T21:51:18.378Z,7.90
2023-06-25T21:53:44.523Z,6.70
2023-06-25T21:56:10.684Z,7.20
2023-06-25T21:58:36.769Z,8.80
2023-06-25T22:01:03.000Z,7.80
2023-06-25T22:03:29.322Z,8.20
2023-06-25T22:05:55.867Z,7.20
2023-06-25T22:08:22.010Z,8.40
2023-06-25T22:10:48.155Z,8.10
2023-06-25T22:13:17.803Z,7.80
2023-06-25T22:15:44.756Z,8.60
2023-06-25T22:18:10.937Z,7.40
2023-06-25T22:20:37.531Z,7.60
2023-06-25T22:23:03.914Z,8.00
2023-06-25T22:25:30.176Z,7.90
2023-06-25T22:27:56.426Z,8.20
2023-06-25T22:30:22.709Z,9.40
2023-06-25T22:32:49.047Z,9.40
2023-06-25T22:35:15.449Z,8.70
2023-06-25T22:37:42.010Z,8.30
2023-06-25T22:40:08.955Z,8.80
2023-06-25T22:42:35.352Z,9.70
2023-06-25T22:45:01.596Z,8.40
2023-06-25T22:47:29.543Z,7.50
2023-06-25T22:49:57.338Z,8.30
2023-06-25T22:52:23.799Z,7.30
2023-06-25T22:54:51.321Z,7.50
2023-06-25T22:57:17.851Z,7.80
2023-06-25T22:59:44.030Z,8.00
2023-06-25T23:02:10.259Z,7.60
2023-06-25T23:04:36.590Z,8.30
2023-06-25T23:07:03.163Z,7.90
2023-06-25T23:09:29.442Z,8.70
2023-06-25T23:11:55.672Z,8.90
2023-06-25T23:14:21.901Z,9.50
2023-06-25T23:16:49.040Z,10.40
2023-06-25T23:19:17.411Z,12.30
2023-06-25T23:21:46.032Z,13.70
2023-06-25T23:24:12.212Z,14.60
2023-06-25T23:26:45.398Z,12.60
2023-06-25T23:29:13.106Z,13.50
2023-06-25T23:31:39.373Z,13.00
2023-06-25T23:34:05.558Z,11.40
2023-06-25T23:36:31.697Z,13.70
2023-06-25T23:38:57.927Z,9.90
2023-06-25T23:41:24.127Z,10.50
2023-06-25T23:43:50.322Z,10.70
2023-06-25T23:46:16.557Z,10.30
2023-06-25T23:48:42.702Z,9.90
2023-06-25T23:51:08.907Z,10.70
2023-06-25T23:53:35.097Z,10.80
2023-06-25T23:56:01.261Z,9.90
2023-06-25T23:58:27.496Z,9.50
